Terminal Aerodrome Forecast
Issued by NWS Shreveport, LA

Home | Current Version | Previous Version | Text Only | Print | Product List | Glossary On
Versions: 1 2 3 4 5 6 7 8 9 10 11 12 13 14
000
FTUS44 KSHV 292300
TAFTYR
TAF
KTYR 292340Z 3000/3024 VRB04KT P6SM BKN140
     FM301000 13004KT P6SM BKN100
     FM301500 15009KT P6SM BKN100
     FM301800 15009KT P6SM FEW040 BKN100=

USA.gov is the U.S. government's official web portal to all federal, state and local government web resources and services.